Kings Creek, South Carolina
Current Conditions -  °F | °C
As of 1:35 PM on Saturday 25 Oct 2014 (Local Time) from KEHO Reporting Station
Clear Clear  
Wind Chill: 69°   Ceiling: Unl
Heat Index: 69°   Visibility: 10mi
Dew Point: 37°   Wind: 6mph
Humidity: 32%   Direction: 200°SSW
Pressure: 30"   Gusts: NA
Location:  35.1147°N, 81.4908°W
Report Text: KEHO 251735Z AUTO 20005KT 10SM CLR 20/03 A3000 RMK AO2 T02030029
Loading
Personal Weather Stations






























Interactive Weather Map
Tropical Storm Tracking
New forecast layout! Learn more

10-Day Weather Forecast

Advertisements
Track Severe Weather on mobile